createdAt,value
2019-02-20T00:01:37.957Z,100920.96
2019-02-20T00:04:08.953Z,100922.47
2019-02-20T00:06:39.938Z,100917.14
2019-02-20T00:09:10.845Z,100916.23
2019-02-20T00:11:41.856Z,100916.77
2019-02-20T00:14:12.750Z,100917.43
2019-02-20T00:16:43.785Z,100913.73
2019-02-20T00:19:14.687Z,100912.42
2019-02-20T00:21:45.610Z,100913.89
2019-02-20T00:24:16.500Z,100920.70
2019-02-20T00:26:47.495Z,100914.27
2019-02-20T00:29:18.389Z,100919.64
2019-02-20T00:31:49.337Z,100923.31
2019-02-20T00:34:20.198Z,100920.69
2019-02-20T00:36:51.156Z,100917.54
2019-02-20T00:39:22.048Z,100930.22
2019-02-20T00:41:52.981Z,100921.44
2019-02-20T00:44:41.722Z,100929.31
2019-02-20T00:47:30.841Z,100927.14
2019-02-20T00:50:01.808Z,100927.52
2019-02-20T00:52:34.413Z,100926.06
2019-02-20T00:55:08.619Z,100919.13
2019-02-20T00:57:39.566Z,100928.06
2019-02-20T01:00:12.631Z,100919.17
2019-02-20T01:02:43.607Z,100913.91
2019-02-20T01:05:15.354Z,100922.40
2019-02-20T01:07:46.266Z,100919.36
2019-02-20T01:10:17.159Z,100924.23
2019-02-20T01:12:48.735Z,100917.59
2019-02-20T01:15:19.652Z,100927.12
2019-02-20T01:17:50.948Z,100925.47
2019-02-20T01:20:21.906Z,100913.33
2019-02-20T01:22:59.640Z,100920.83
2019-02-20T01:25:25.408Z,100926.34
2019-02-20T01:27:56.436Z,100928.96
2019-02-20T01:30:27.330Z,100927.65
2019-02-20T01:32:58.629Z,100931.70
2019-02-20T01:35:29.521Z,100932.48
2019-02-20T01:38:00.448Z,100927.39
2019-02-20T01:40:31.350Z,100939.73
2019-02-20T01:43:02.277Z,100934.73
2019-02-20T01:45:33.172Z,100927.39
2019-02-20T01:48:04.138Z,100926.86
2019-02-20T01:50:35.032Z,100940.84
2019-02-20T01:53:10.297Z,100948.31
2019-02-20T01:55:38.541Z,100942.20
2019-02-20T01:58:09.473Z,100953.56
2019-02-20T02:00:40.432Z,100947.12
2019-02-20T02:03:11.363Z,100957.39
2019-02-20T02:05:43.137Z,100949.06
2019-02-20T02:08:14.066Z,100939.05
2019-02-20T02:10:44.955Z,100956.12
2019-02-20T02:13:15.897Z,100946.33
2019-02-20T02:15:46.776Z,100945.09
2019-02-20T02:18:17.709Z,100945.73
2019-02-20T02:20:48.609Z,100953.50
2019-02-20T02:23:20.166Z,100962.95
2019-02-20T02:25:51.100Z,100959.45
2019-02-20T02:28:22.014Z,100952.03
2019-02-20T02:30:52.977Z,100951.25
2019-02-20T02:33:24.235Z,100953.50
2019-02-20T02:35:55.128Z,100957.81
2019-02-20T02:38:26.044Z,100956.77
2019-02-20T02:40:56.930Z,100962.72
2019-02-20T02:43:27.846Z,100957.66
2019-02-20T02:45:58.750Z,100962.69
2019-02-20T02:48:29.786Z,100960.84
2019-02-20T02:51:00.687Z,100964.90
2019-02-20T02:53:31.607Z,100964.26
2019-02-20T02:56:02.496Z,100959.58
2019-02-20T02:58:33.413Z,100964.90
2019-02-20T03:01:04.378Z,100968.27
2019-02-20T03:03:35.318Z,100971.80
2019-02-20T03:06:07.190Z,100971.12
2019-02-20T03:08:38.117Z,100954.66
2019-02-20T03:11:09.002Z,100963.55
2019-02-20T03:13:39.952Z,100959.77
2019-02-20T03:16:10.833Z,100970.64
2019-02-20T03:18:41.762Z,100964.08
2019-02-20T03:21:12.652Z,100970.38
2019-02-20T03:23:43.579Z,100970.30
2019-02-20T03:26:14.477Z,100949.31
2019-02-20T03:28:45.392Z,100985.89
2019-02-20T03:31:16.308Z,100977.38
2019-02-20T03:33:47.238Z,100992.94
2019-02-20T03:36:18.127Z,100998.56
2019-02-20T03:38:49.045Z,100992.00
2019-02-20T03:41:20.717Z,100994.70
2019-02-20T03:43:51.598Z,100985.52
2019-02-20T03:46:22.481Z,100992.70
2019-02-20T03:48:53.423Z,100988.52
2019-02-20T03:51:24.321Z,100990.80
2019-02-20T03:53:55.372Z,101005.91
2019-02-20T03:56:26.563Z,101010.71
2019-02-20T03:58:57.490Z,101003.28
2019-02-20T04:01:28.381Z,101019.33
2019-02-20T04:03:59.324Z,101016.66
2019-02-20T04:06:30.206Z,101012.88
2019-02-20T04:09:01.139Z,101002.95
2019-02-20T04:11:32.017Z,101009.23
2019-02-20T04:14:02.934Z,101014.90
2019-02-20T04:16:33.899Z,101014.30
2019-02-20T04:19:04.846Z,101011.57
2019-02-20T04:21:35.745Z,101016.81
2019-02-20T04:24:06.675Z,101022.45
2019-02-20T04:26:38.766Z,101023.11
2019-02-20T04:29:09.653Z,101008.16
2019-02-20T04:31:40.553Z,101020.48
2019-02-20T04:34:11.515Z,101017.20
2019-02-20T04:36:42.426Z,101021.81
2019-02-20T04:39:13.408Z,101023.13
2019-02-20T04:41:44.306Z,101020.00
2019-02-20T04:44:15.238Z,101027.77
2019-02-20T04:46:46.143Z,101023.22
2019-02-20T04:49:17.072Z,101034.41
2019-02-20T04:51:47.961Z,101030.08
2019-02-20T04:54:18.875Z,101019.59
2019-02-20T04:56:49.776Z,101027.34
2019-02-20T04:59:20.711Z,101025.73
2019-02-20T05:01:51.604Z,101027.70
2019-02-20T05:04:22.697Z,101020.73
2019-02-20T05:06:54.395Z,101022.05
2019-02-20T05:09:25.316Z,101026.08
2019-02-20T05:11:56.221Z,101017.55
2019-02-20T05:14:27.154Z,101032.88
2019-02-20T05:16:58.032Z,101035.39
2019-02-20T05:19:29.053Z,101039.16
2019-02-20T05:22:00.629Z,101039.50
2019-02-20T05:24:31.586Z,101044.40
2019-02-20T05:27:02.466Z,101038.53
2019-02-20T05:29:33.378Z,101053.06
2019-02-20T05:32:04.265Z,101054.64
2019-02-20T05:34:35.246Z,101052.71
2019-02-20T05:37:06.127Z,101062.93
2019-02-20T05:39:37.075Z,101060.83
2019-02-20T05:42:07.969Z,101055.27
2019-02-20T05:44:38.891Z,101056.75
2019-02-20T05:47:09.790Z,101063.94
2019-02-20T05:49:40.730Z,101069.87
2019-02-20T05:52:11.624Z,101065.10
2019-02-20T05:54:42.551Z,101064.59
2019-02-20T05:57:13.442Z,101066.86
2019-02-20T05:59:44.372Z,101051.33
2019-02-20T06:02:15.273Z,101062.97
2019-02-20T06:04:46.304Z,101070.80
2019-02-20T06:07:17.192Z,101075.80
2019-02-20T06:09:48.107Z,101084.61
2019-02-20T06:12:18.997Z,101081.22
2019-02-20T06:14:49.917Z,101086.41
2019-02-20T06:17:20.804Z,101092.69
2019-02-20T06:19:51.753Z,101101.66
2019-02-20T06:22:22.650Z,101101.00
2019-02-20T06:24:53.591Z,101111.50
2019-02-20T06:27:24.480Z,101113.84
2019-02-20T06:29:55.409Z,101106.39
2019-02-20T06:32:26.307Z,101106.25
2019-02-20T06:34:57.262Z,101118.06
2019-02-20T06:37:28.155Z,101111.23
2019-02-20T06:39:59.090Z,101114.19
2019-02-20T06:42:29.980Z,101115.75
2019-02-20T06:45:00.897Z,101132.17
2019-02-20T06:47:31.800Z,101127.14
2019-02-20T06:50:02.835Z,101130.55
2019-02-20T06:52:33.729Z,101134.97
2019-02-20T06:55:06.576Z,101140.84
2019-02-20T06:57:37.550Z,101136.11
2019-02-20T07:00:11.336Z,101147.27
2019-02-20T07:02:42.229Z,101144.16
2019-02-20T07:05:30.394Z,101145.85
2019-02-20T07:08:25.876Z,101155.31
2019-02-20T07:11:03.002Z,101156.86
2019-02-20T07:13:36.825Z,101151.61
2019-02-20T07:16:28.522Z,101147.23
2019-02-20T07:19:04.884Z,101162.19
2019-02-20T07:22:12.299Z,101158.17
2019-02-20T07:24:52.085Z,101170.33
2019-02-20T07:27:34.442Z,101165.36
2019-02-20T07:30:11.306Z,101179.28
2019-02-20T07:32:42.213Z,101184.25
2019-02-20T07:35:13.185Z,101170.61
2019-02-20T07:37:44.162Z,101170.50
2019-02-20T07:40:15.053Z,101185.73
2019-02-20T07:42:45.982Z,101183.52
2019-02-20T07:45:16.877Z,101194.81
2019-02-20T07:47:47.799Z,101195.09
2019-02-20T07:50:18.702Z,101209.19
2019-02-20T07:52:49.636Z,101201.72
2019-02-20T07:55:20.553Z,101213.59
2019-02-20T07:57:51.464Z,101221.75
2019-02-20T08:00:22.350Z,101211.92
2019-02-20T08:02:53.274Z,101222.20
2019-02-20T08:05:24.231Z,101216.33
2019-02-20T08:07:55.190Z,101226.04
2019-02-20T08:10:26.130Z,101236.93
2019-02-20T08:12:57.071Z,101224.94
2019-02-20T08:15:27.957Z,101225.70
2019-02-20T08:17:58.891Z,101240.31
2019-02-20T08:20:29.784Z,101246.07
2019-02-20T08:23:00.879Z,101250.03
2019-02-20T08:25:31.767Z,101243.23
2019-02-20T08:28:02.688Z,101249.28
2019-02-20T08:30:33.597Z,101244.28
2019-02-20T08:33:04.527Z,101249.03
2019-02-20T08:35:35.427Z,101247.41
2019-02-20T08:38:06.394Z,101252.48
2019-02-20T08:40:37.273Z,101254.44
2019-02-20T08:43:08.232Z,101258.43
2019-02-20T08:45:39.139Z,101244.50
2019-02-20T08:48:10.025Z,101260.51
2019-02-20T08:50:40.908Z,101272.16
2019-02-20T08:53:11.867Z,101268.00
2019-02-20T08:55:42.766Z,101274.46
2019-02-20T08:58:13.678Z,101283.31
2019-02-20T09:00:44.574Z,101284.23
2019-02-20T09:03:15.485Z,101284.02
2019-02-20T09:05:46.375Z,101290.44
2019-02-20T09:08:17.414Z,101295.42
2019-02-20T09:10:48.305Z,101299.25
2019-02-20T09:13:19.220Z,101309.91
2019-02-20T09:15:50.119Z,101309.86
2019-02-20T09:18:21.080Z,101316.25
2019-02-20T09:20:51.986Z,101312.95
2019-02-20T09:23:22.921Z,101323.81
2019-02-20T09:25:53.825Z,101325.45
2019-02-20T09:28:24.742Z,101316.52
2019-02-20T09:30:55.644Z,101322.65
2019-02-20T09:33:26.569Z,101328.78
2019-02-20T09:35:57.444Z,101334.67
2019-02-20T09:38:28.385Z,101325.62
2019-02-20T09:40:59.644Z,101330.94
2019-02-20T09:43:30.581Z,101350.75
2019-02-20T09:46:01.478Z,101358.13
2019-02-20T09:48:32.394Z,101359.59
2019-02-20T09:51:03.282Z,101354.37
2019-02-20T09:53:34.249Z,101353.38
2019-02-20T09:56:05.150Z,101366.22
2019-02-20T09:58:36.065Z,101374.64
2019-02-20T10:01:06.959Z,101369.58
2019-02-20T10:03:37.868Z,101372.62
2019-02-20T10:06:08.758Z,101367.35
2019-02-20T10:08:39.835Z,101389.52
2019-02-20T10:11:11.934Z,101383.01
2019-02-20T10:13:42.862Z,101390.95
2019-02-20T10:16:13.754Z,101391.02
2019-02-20T10:18:44.667Z,101397.83
2019-02-20T10:21:17.199Z,101408.77
2019-02-20T10:23:48.304Z,101410.77
2019-02-20T10:26:19.206Z,101407.68
2019-02-20T10:28:50.140Z,101415.91
2019-02-20T10:31:21.027Z,101398.94
2019-02-20T10:33:52.033Z,101401.95
2019-02-20T10:36:22.935Z,101407.89
2019-02-20T10:38:54.000Z,101409.14
2019-02-20T10:41:25.216Z,101403.80
2019-02-20T10:43:56.142Z,101419.48
2019-02-20T10:46:27.038Z,101426.19
2019-02-20T10:48:57.971Z,101421.59
2019-02-20T10:51:28.870Z,101425.73
2019-02-20T10:53:59.835Z,101421.09
2019-02-20T10:56:30.796Z,101418.45
2019-02-20T10:59:01.718Z,101420.60
2019-02-20T11:01:32.690Z,101433.80
2019-02-20T11:04:03.625Z,101440.59
2019-02-20T11:06:34.508Z,101442.70
2019-02-20T11:09:06.576Z,101428.09
2019-02-20T11:11:37.479Z,101439.20
2019-02-20T11:14:08.388Z,101451.64
2019-02-20T11:16:39.286Z,101443.85
2019-02-20T11:19:10.217Z,101458.94
2019-02-20T11:21:41.207Z,101452.52
2019-02-20T11:24:12.169Z,101466.20
2019-02-20T11:26:52.397Z,101478.25
2019-02-20T11:29:15.694Z,101480.05
2019-02-20T11:31:46.580Z,101480.42
2019-02-20T11:34:17.507Z,101487.86
2019-02-20T11:36:49.413Z,101478.30
2019-02-20T11:39:20.440Z,101491.42
2019-02-20T11:41:51.340Z,101501.83
2019-02-20T11:44:22.313Z,101488.11
2019-02-20T11:46:53.231Z,101500.86
2019-02-20T11:49:24.133Z,101502.34
2019-02-20T11:51:55.098Z,101501.09
2019-02-20T11:54:26.037Z,101514.94
2019-02-20T11:56:56.928Z,101501.18
2019-02-20T11:59:27.927Z,101525.06
2019-02-20T12:01:58.909Z,101525.50
2019-02-20T12:04:29.836Z,101519.80
2019-02-20T12:07:00.728Z,101519.70
2019-02-20T12:09:31.752Z,101525.41
2019-02-20T12:12:02.644Z,101521.53
2019-02-20T12:14:33.599Z,101534.06
2019-02-20T12:17:04.507Z,101510.84
2019-02-20T12:19:35.419Z,101531.20
2019-02-20T12:22:06.387Z,101528.34
2019-02-20T12:24:37.339Z,101537.95
2019-02-20T12:27:08.231Z,101534.87
2019-02-20T12:29:39.141Z,101550.49
2019-02-20T12:32:10.043Z,101552.60
2019-02-20T12:34:40.970Z,101552.46
2019-02-20T12:37:11.867Z,101557.10
2019-02-20T12:39:42.801Z,101549.11
2019-02-20T12:42:13.693Z,101561.19
2019-02-20T12:44:44.612Z,101577.70
2019-02-20T12:47:15.512Z,101577.19
2019-02-20T12:49:46.522Z,101583.76
2019-02-20T12:52:17.402Z,101586.39
2019-02-20T12:54:48.442Z,101589.72
2019-02-20T12:57:19.330Z,101589.54
2019-02-20T12:59:50.260Z,101580.84
2019-02-20T13:02:21.154Z,101591.57
2019-02-20T13:04:52.153Z,101599.98
2019-02-20T13:07:23.057Z,101608.29
2019-02-20T13:09:54.071Z,101622.16
2019-02-20T13:12:25.757Z,101614.27
2019-02-20T13:14:56.677Z,101625.27
2019-02-20T13:17:27.584Z,101627.31
2019-02-20T13:19:58.506Z,101635.49
2019-02-20T13:22:29.408Z,101640.05
2019-02-20T13:25:00.360Z,101651.19
2019-02-20T13:27:31.267Z,101649.26
2019-02-20T13:30:02.209Z,101652.92
2019-02-20T13:32:33.118Z,101655.28
2019-02-20T13:35:04.548Z,101657.28
2019-02-20T13:37:35.450Z,101668.77
2019-02-20T13:40:09.224Z,101669.78
2019-02-20T13:42:40.127Z,101678.54
2019-02-20T13:45:11.072Z,101683.73
2019-02-20T13:47:41.963Z,101688.09
2019-02-20T13:50:13.081Z,101686.59
2019-02-20T13:52:51.970Z,101679.21
2019-02-20T13:55:17.105Z,101685.02
2019-02-20T13:57:47.996Z,101686.48
2019-02-20T14:00:18.918Z,101684.36
2019-02-20T14:02:49.826Z,101696.10
2019-02-20T14:05:20.762Z,101692.00
2019-02-20T14:07:51.670Z,101691.91
2019-02-20T14:10:22.636Z,101688.09
2019-02-20T14:12:53.545Z,101687.19
2019-02-20T14:15:24.583Z,101691.73
2019-02-20T14:17:55.497Z,101695.88
2019-02-20T14:20:26.709Z,101696.69
2019-02-20T14:22:57.602Z,101695.79
2019-02-20T14:25:28.555Z,101705.18
2019-02-20T14:27:59.450Z,101701.03
2019-02-20T14:30:30.436Z,101702.25
2019-02-20T14:33:01.337Z,101700.14
2019-02-20T14:35:32.290Z,101712.06
2019-02-20T14:38:03.209Z,101716.30
2019-02-20T14:40:34.265Z,101716.75
2019-02-20T14:43:05.166Z,101723.77
2019-02-20T14:45:36.095Z,101727.62
2019-02-20T14:48:07.274Z,101730.97
2019-02-20T14:50:38.204Z,101722.87
2019-02-20T14:53:09.111Z,101737.17
2019-02-20T14:55:40.179Z,101732.30
2019-02-20T14:58:11.167Z,101733.16
2019-02-20T15:00:42.535Z,101747.53
2019-02-20T15:03:13.441Z,101741.15
2019-02-20T15:05:44.379Z,101746.02
2019-02-20T15:08:15.287Z,101746.67
2019-02-20T15:10:46.471Z,101746.84
2019-02-20T15:13:17.407Z,101760.11
2019-02-20T15:15:48.335Z,101757.12
2019-02-20T15:18:19.232Z,101758.05
2019-02-20T15:20:50.146Z,101758.07
2019-02-20T15:23:21.047Z,101768.64
2019-02-20T15:25:52.018Z,101771.27
2019-02-20T15:28:23.174Z,101760.11
2019-02-20T15:30:54.124Z,101767.52
2019-02-20T15:33:25.024Z,101778.42
2019-02-20T15:35:55.954Z,101774.34
2019-02-20T15:38:26.844Z,101779.88
2019-02-20T15:40:57.795Z,101786.75
2019-02-20T15:43:28.713Z,101791.17
2019-02-20T15:45:59.642Z,101792.85
2019-02-20T15:48:30.554Z,101795.55
2019-02-20T15:51:01.481Z,101790.88
2019-02-20T15:53:32.387Z,101797.97
2019-02-20T15:56:03.613Z,101810.59
2019-02-20T15:58:34.597Z,101810.66
2019-02-20T16:01:08.094Z,101811.22
2019-02-20T16:03:39.071Z,101818.30
2019-02-20T16:06:10.003Z,101818.06
2019-02-20T16:08:41.183Z,101815.86
2019-02-20T16:11:12.136Z,101820.62
2019-02-20T16:13:43.040Z,101824.24
2019-02-20T16:16:14.321Z,101831.77
2019-02-20T16:18:45.368Z,101838.84
2019-02-20T16:21:16.374Z,101845.40
2019-02-20T16:23:47.469Z,101837.58
2019-02-20T16:26:18.426Z,101840.40
2019-02-20T16:28:49.334Z,101843.52
2019-02-20T16:31:20.268Z,101844.77
2019-02-20T16:33:51.232Z,101842.28
2019-02-20T16:36:23.264Z,101841.78
2019-02-20T16:38:54.188Z,101844.27
2019-02-20T16:41:25.177Z,101849.09
2019-02-20T16:43:56.103Z,101858.21
2019-02-20T16:46:36.440Z,101860.39
2019-02-20T16:49:10.840Z,101870.08
2019-02-20T16:51:41.787Z,101873.15
2019-02-20T16:54:12.702Z,101876.09
2019-02-20T16:56:43.665Z,101883.92
2019-02-20T16:59:14.571Z,101884.34
2019-02-20T17:01:45.884Z,101882.52
2019-02-20T17:04:16.782Z,101878.91
2019-02-20T17:06:47.715Z,101887.66
2019-02-20T17:09:18.628Z,101883.72
2019-02-20T17:11:49.645Z,101892.42
2019-02-20T17:14:20.649Z,101893.36
2019-02-20T17:16:51.585Z,101888.58
2019-02-20T17:19:22.489Z,101891.53
2019-02-20T17:21:53.415Z,101895.98
2019-02-20T17:24:24.314Z,101897.35
2019-02-20T17:26:55.356Z,101898.16
2019-02-20T17:29:26.448Z,101897.77
2019-02-20T17:31:57.371Z,101901.66
2019-02-20T17:34:28.264Z,101903.91
2019-02-20T17:36:59.201Z,101912.73
2019-02-20T17:39:30.102Z,101906.30
2019-02-20T17:42:01.346Z,101909.48
2019-02-20T17:44:32.245Z,101920.03
2019-02-20T17:47:03.177Z,101921.47
2019-02-20T17:49:34.183Z,101925.36
2019-02-20T17:52:05.106Z,101921.47
2019-02-20T17:54:36.003Z,101932.04
2019-02-20T17:57:07.054Z,101924.72
2019-02-20T17:59:37.955Z,101926.53
2019-02-20T18:02:08.971Z,101928.28
2019-02-20T18:04:39.877Z,101931.78
2019-02-20T18:07:10.807Z,101941.95
2019-02-20T18:09:41.717Z,101945.84
2019-02-20T18:12:12.713Z,101948.14
2019-02-20T18:14:43.631Z,101948.25
2019-02-20T18:17:14.577Z,101947.82
2019-02-20T18:19:45.491Z,101944.38
2019-02-20T18:22:16.534Z,101945.75
2019-02-20T18:24:47.565Z,101955.98
2019-02-20T18:27:18.609Z,101951.71
2019-02-20T18:29:49.522Z,101955.31
2019-02-20T18:32:20.464Z,101959.37
2019-02-20T18:34:51.366Z,101966.02
2019-02-20T18:37:22.503Z,101960.41
2019-02-20T18:39:53.455Z,101970.18
2019-02-20T18:42:24.449Z,101969.07
2019-02-20T18:44:55.815Z,101965.30
2019-02-20T18:47:26.861Z,101965.39
2019-02-20T18:49:57.755Z,101961.99
2019-02-20T18:52:28.688Z,101973.79
2019-02-20T18:55:05.854Z,101976.47
2019-02-20T18:57:32.265Z,101978.20
2019-02-20T19:00:03.159Z,101978.61
2019-02-20T19:02:34.099Z,101979.05
2019-02-20T19:05:06.762Z,101981.66
2019-02-20T19:07:37.762Z,101979.86
2019-02-20T19:10:11.611Z,101972.83
2019-02-20T19:12:51.304Z,101979.77
2019-02-20T19:15:25.180Z,101981.07
2019-02-20T19:18:08.024Z,101984.95
2019-02-20T19:21:03.248Z,101994.91
2019-02-20T19:23:48.482Z,101989.23
2019-02-20T19:26:22.276Z,101996.16
2019-02-20T19:29:27.836Z,102001.75
2019-02-20T19:32:21.402Z,102002.03
2019-02-20T19:35:01.178Z,102006.80
2019-02-20T19:37:43.741Z,101998.44
2019-02-20T19:40:17.622Z,102004.06
2019-02-20T19:42:54.366Z,102001.45
2019-02-20T19:45:30.929Z,102005.28
2019-02-20T19:48:13.734Z,102002.59
2019-02-20T19:50:56.126Z,102011.66
2019-02-20T19:53:38.725Z,102014.62
2019-02-20T19:56:27.461Z,102019.72
2019-02-20T19:59:16.486Z,102010.52
2019-02-20T20:01:52.990Z,102016.61
2019-02-20T20:04:29.560Z,102014.84
2019-02-20T20:07:15.393Z,102022.12
2019-02-20T20:10:13.379Z,102016.80
2019-02-20T20:13:02.236Z,102019.83
2019-02-20T20:15:53.882Z,102030.64
2019-02-20T20:18:36.943Z,102031.58
2019-02-20T20:21:16.665Z,102025.88
2019-02-20T20:23:53.173Z,102020.54
2019-02-20T20:26:35.785Z,102021.30
2019-02-20T20:29:32.109Z,102023.04
2019-02-20T20:32:08.839Z,102024.73
2019-02-20T20:35:00.885Z,102024.25
2019-02-20T20:37:37.730Z,102021.17
2019-02-20T20:40:40.427Z,102020.68
2019-02-20T20:43:14.258Z,102020.25
2019-02-20T20:45:48.097Z,102019.38
2019-02-20T20:48:36.840Z,102018.94
2019-02-20T20:51:13.522Z,102019.86
2019-02-20T20:54:22.630Z,102021.23
2019-02-20T20:57:08.220Z,102019.12
2019-02-20T20:59:44.813Z,102018.52
2019-02-20T21:02:21.617Z,102021.67
2019-02-20T21:05:01.315Z,102032.34
2019-02-20T21:07:46.799Z,102026.77
2019-02-20T21:10:40.085Z,102020.76
2019-02-20T21:13:19.845Z,102026.65
2019-02-20T21:16:16.210Z,102028.06
2019-02-20T21:19:21.634Z,102032.09
2019-02-20T21:22:26.385Z,102038.27
2019-02-20T21:25:33.612Z,102037.06
2019-02-20T21:28:22.401Z,102036.77
2019-02-20T21:31:05.026Z,102044.83
2019-02-20T21:34:12.132Z,102039.63
2019-02-20T21:36:54.582Z,102049.29
2019-02-20T21:39:37.396Z,102044.14
2019-02-20T21:42:35.296Z,102044.59
2019-02-20T21:45:18.027Z,102040.31
2019-02-20T21:48:08.985Z,102040.36
2019-02-20T21:50:45.807Z,102042.63
2019-02-20T21:53:19.651Z,102047.09
2019-02-20T21:56:14.972Z,102044.47
2019-02-20T21:58:58.074Z,102044.08
2019-02-20T22:01:44.148Z,102042.86
2019-02-20T22:04:40.561Z,102041.11
2019-02-20T22:07:29.275Z,102037.66
2019-02-20T22:10:05.819Z,102041.72
2019-02-20T22:13:02.387Z,102045.26
2019-02-20T22:15:36.450Z,102043.48
2019-02-20T22:18:32.499Z,102042.64
2019-02-20T22:21:15.189Z,102040.03
2019-02-20T22:23:57.883Z,102032.12
2019-02-20T22:26:46.054Z,102037.31
2019-02-20T22:29:37.396Z,102038.93
2019-02-20T22:32:11.286Z,102040.10
2019-02-20T22:34:50.863Z,102043.94
2019-02-20T22:37:30.748Z,102042.97
2019-02-20T22:40:07.529Z,102044.63
2019-02-20T22:43:14.861Z,102045.41
2019-02-20T22:46:00.581Z,102047.50
2019-02-20T22:48:46.179Z,102047.88
2019-02-20T22:51:42.217Z,102055.22
2019-02-20T22:54:24.574Z,102057.36
2019-02-20T22:57:26.631Z,102053.38
2019-02-20T23:00:35.515Z,102056.34
2019-02-20T23:03:12.124Z,102054.98
2019-02-20T23:06:14.798Z,102051.48
2019-02-20T23:08:48.631Z,102049.73
2019-02-20T23:11:34.685Z,102050.65
2019-02-20T23:14:08.514Z,102058.05
2019-02-20T23:16:39.486Z,102057.16
2019-02-20T23:19:10.390Z,102058.03
2019-02-20T23:21:41.364Z,102054.09
2019-02-20T23:24:12.265Z,102052.78
2019-02-20T23:26:43.271Z,102050.16
2019-02-20T23:29:14.193Z,102052.36
2019-02-20T23:31:45.125Z,102048.03
2019-02-20T23:34:16.539Z,102049.78
2019-02-20T23:36:47.515Z,102050.31
2019-02-20T23:39:18.415Z,102052.51
2019-02-20T23:41:49.679Z,102051.23
2019-02-20T23:44:20.586Z,102044.73
2019-02-20T23:46:51.528Z,102046.96
2019-02-20T23:49:22.432Z,102045.70
2019-02-20T23:51:53.395Z,102040.94
2019-02-20T23:54:24.299Z,102044.45
2019-02-20T23:56:55.241Z,102048.42
2019-02-20T23:59:26.237Z,102056.72
